Time;durP1;ratioP1;P1;durP2;ratioP2;P2;SDS_P1;SDS_P2;PMS_P1;PMS_P2;Temp;Humidity;BMP_temperature;BMP_pressure;BME280_temperature;BME280_humidity;BME280_pressure;Samples;Min_cycle;Max_cycle;Signal;HPM_P1;HPM_P2
2023/03/31 00:01:40;;;;;;;;;;;13.50;83.30;;;;;;5041848;28;19937;-74
2023/03/31 00:04:08;;;;;;;;;;;13.50;83.30;;;;;;5040873;28;20488;-76
2023/03/31 00:06:36;;;;;;;;;;;13.50;83.10;;;;;;5041188;28;19929;-78
2023/03/31 00:09:03;;;;;;;;;;;13.50;83.20;;;;;;5034950;28;20614;-80
2023/03/31 00:11:31;;;;;;;;;;;13.40;83.20;;;;;;5042277;28;19932;-79
2023/03/31 00:13:58;;;;;;;;;;;13.50;83.30;;;;;;5044463;28;19936;-77
2023/03/31 00:16:25;;;;;;;;;;;13.50;83.10;;;;;;5037476;28;19936;-79
2023/03/31 00:18:52;;;;;;;;;;;13.40;83.00;;;;;;5045633;28;19939;-74
2023/03/31 00:21:24;;;;;;;;;;;13.40;83.00;;;;;;5044929;28;19944;-79
2023/03/31 00:23:51;;;;;;;;;;;13.40;83.00;;;;;;5048694;28;19955;-77
2023/03/31 00:26:17;;;;;;;;;;;13.40;83.20;;;;;;5042442;28;19936;-79
2023/03/31 00:28:45;;;;;;;;;;;13.40;83.00;;;;;;5044043;28;19933;-78
2023/03/31 00:31:12;;;;;;;;;;;13.40;82.70;;;;;;5053152;28;19932;-79
2023/03/31 00:33:38;;;;;;;;;;;13.40;82.70;;;;;;5042422;28;19940;-76
2023/03/31 00:36:05;;;;;;;;;;;13.40;82.60;;;;;;5044372;28;19933;-74
2023/03/31 00:38:32;;;;;;;;;;;13.30;82.40;;;;;;5047407;28;19939;-77
2023/03/31 00:40:59;;;;;;;;;;;13.40;82.30;;;;;;5044062;28;20394;-81
2023/03/31 00:43:31;;;;;;;;;;;13.40;82.10;;;;;;5043923;28;20011;-78
2023/03/31 00:46:03;;;;;;;;;;;13.40;82.30;;;;;;5042049;28;20544;-75
2023/03/31 00:48:31;;;;;;;;;;;13.40;82.50;;;;;;5042256;28;19925;-76
2023/03/31 00:51:00;;;;;;;;;;;13.30;82.40;;;;;;5041715;28;19931;-76
2023/03/31 00:53:28;;;;;;;;;;;13.30;82.20;;;;;;5045771;28;19932;-77
2023/03/31 00:55:57;;;;;;;;;;;13.30;82.30;;;;;;5040318;28;19932;-78
2023/03/31 00:58:27;;;;;;;;;;;13.30;82.40;;;;;;5042793;28;19929;-75
2023/03/31 01:00:54;;;;;;;;;;;13.30;82.30;;;;;;5035589;28;19933;-74
2023/03/31 01:03:22;;;;;;;;;;;13.30;82.20;;;;;;5039271;28;19940;-77
2023/03/31 01:05:51;;;;;;;;;;;13.30;82.30;;;;;;5036216;28;20036;-75
2023/03/31 01:08:18;;;;;;;;;;;13.40;82.40;;;;;;5035944;28;19929;-76
2023/03/31 01:10:47;;;;;;;;;;;13.30;82.30;;;;;;5033643;28;19941;-76
2023/03/31 01:13:14;;;;;;;;;;;13.30;82.40;;;;;;5036874;28;20255;-77
2023/03/31 01:15:42;;;;;;;;;;;13.30;82.50;;;;;;5038957;28;19929;-78
2023/03/31 01:18:10;;;;;;;;;;;13.30;82.50;;;;;;5035941;28;19988;-76
2023/03/31 01:20:42;;;;;;;;;;;13.20;82.50;;;;;;5040285;28;19964;-73
2023/03/31 01:23:32;;;;;;;;;;;13.30;82.70;;;;;;5043919;28;19929;-73
2023/03/31 01:26:17;;;;;;;;;;;13.20;82.90;;;;;;5028138;28;19940;-76
2023/03/31 01:28:46;;;;;;;;;;;13.20;83.30;;;;;;5041485;28;19944;-77
2023/03/31 01:31:40;;;;;;;;;;;13.20;83.80;;;;;;5038594;28;19929;-75
2023/03/31 01:34:24;;;;;;;;;;;13.20;84.00;;;;;;5043410;28;19929;-76
2023/03/31 01:37:10;;;;;;;;;;;13.20;84.30;;;;;;5040391;28;19948;-74
2023/03/31 01:39:54;;;;;;;;;;;13.10;84.50;;;;;;5035570;28;19983;-75
2023/03/31 01:42:23;;;;;;;;;;;13.10;84.60;;;;;;5043560;28;19928;-76
2023/03/31 01:44:55;;;;;;;;;;;13.10;84.70;;;;;;5035457;28;20690;-75
2023/03/31 01:47:26;;;;;;;;;;;13.10;84.90;;;;;;5039033;28;20403;-75
2023/03/31 01:49:56;;;;;;;;;;;13.10;85.00;;;;;;5034359;28;20398;-77
2023/03/31 01:52:25;;;;;;;;;;;13.10;85.00;;;;;;5037378;28;20397;-76
2023/03/31 01:54:54;;;;;;;;;;;13.10;85.00;;;;;;5038903;28;19977;-74
2023/03/31 01:57:24;;;;;;;;;;;13.10;85.10;;;;;;5038333;28;19936;-75
2023/03/31 01:59:56;;;;;;;;;;;13.10;85.20;;;;;;5034300;28;19928;-79
2023/03/31 02:02:26;;;;;;;;;;;13.10;85.20;;;;;;5040270;28;19983;-76
2023/03/31 02:04:55;;;;;;;;;;;13.00;85.20;;;;;;5044851;28;19935;-75
2023/03/31 02:07:25;;;;;;;;;;;13.00;85.30;;;;;;5038390;28;19935;-77
2023/03/31 02:09:55;;;;;;;;;;;13.00;85.40;;;;;;5041979;28;20379;-79
2023/03/31 02:12:25;;;;;;;;;;;13.00;85.40;;;;;;5038586;28;19940;-75
2023/03/31 02:14:53;;;;;;;;;;;13.00;85.60;;;;;;5040679;28;19936;-74
2023/03/31 02:17:29;;;;;;;;;;;13.00;85.60;;;;;;5039968;28;19943;-76
2023/03/31 02:19:57;;;;;;;;;;;13.00;85.60;;;;;;5040210;28;19924;-76
2023/03/31 02:22:24;;;;;;;;;;;13.00;85.60;;;;;;5039904;28;19929;-75
2023/03/31 02:24:52;;;;;;;;;;;13.00;85.60;;;;;;5038965;28;20003;-77
2023/03/31 02:27:20;;;;;;;;;;;12.90;85.60;;;;;;5041553;28;19928;-73
2023/03/31 02:29:48;;;;;;;;;;;13.00;85.70;;;;;;5039780;28;19928;-82
2023/03/31 02:32:18;;;;;;;;;;;12.90;85.70;;;;;;5037966;28;19954;-79
2023/03/31 02:34:45;;;;;;;;;;;12.90;86.20;;;;;;5036761;28;19975;-75
2023/03/31 02:37:12;;;;;;;;;;;12.90;85.90;;;;;;5040966;28;19975;-77
2023/03/31 02:39:40;;;;;;;;;;;12.90;86.00;;;;;;5039704;28;20402;-74
2023/03/31 02:42:06;;;;;;;;;;;12.90;86.10;;;;;;5048132;28;20425;-76
2023/03/31 02:44:33;;;;;;;;;;;12.90;86.20;;;;;;5042353;28;19932;-77
2023/03/31 02:47:02;;;;;;;;;;;12.90;86.40;;;;;;5041535;28;19997;-78
2023/03/31 02:49:29;;;;;;;;;;;12.80;86.30;;;;;;5034536;28;19936;-78
2023/03/31 02:52:00;;;;;;;;;;;12.80;86.50;;;;;;5034620;28;19939;-78
2023/03/31 02:54:45;;;;;;;;;;;12.80;86.70;;;;;;5034944;28;19939;-77
2023/03/31 02:57:36;;;;;;;;;;;12.80;86.80;;;;;;5025748;28;21637;-76
2023/03/31 03:00:08;;;;;;;;;;;12.80;86.90;;;;;;5038662;28;19928;-79
2023/03/31 03:02:42;;;;;;;;;;;12.80;87.10;;;;;;5039225;28;20006;-79
2023/03/31 03:05:21;;;;;;;;;;;12.80;87.20;;;;;;5034923;28;19936;-76
2023/03/31 03:07:49;;;;;;;;;;;12.70;87.20;;;;;;5033797;28;19928;-76
2023/03/31 03:10:18;;;;;;;;;;;12.80;87.30;;;;;;5039547;28;20560;-77
2023/03/31 03:12:50;;;;;;;;;;;12.80;87.40;;;;;;5041979;28;19933;-79
2023/03/31 03:15:19;;;;;;;;;;;12.70;87.40;;;;;;5036504;28;19929;-78
2023/03/31 03:17:48;;;;;;;;;;;12.80;87.50;;;;;;5039688;28;19929;-77
2023/03/31 03:20:15;;;;;;;;;;;12.70;87.60;;;;;;5032917;28;20449;-74
2023/03/31 03:22:42;;;;;;;;;;;12.70;87.70;;;;;;5037322;28;19929;-78
2023/03/31 03:25:10;;;;;;;;;;;12.70;87.80;;;;;;5032706;28;19936;-76
2023/03/31 03:27:36;;;;;;;;;;;12.70;87.90;;;;;;5039952;28;19929;-73
2023/03/31 03:30:04;;;;;;;;;;;12.70;88.00;;;;;;5039427;28;19939;-77
2023/03/31 03:32:32;;;;;;;;;;;12.70;88.10;;;;;;5035754;28;19936;-76
2023/03/31 03:35:00;;;;;;;;;;;12.70;88.20;;;;;;5036859;28;19932;-76
2023/03/31 03:37:27;;;;;;;;;;;12.70;88.30;;;;;;5038758;28;19929;-77
2023/03/31 03:39:53;;;;;;;;;;;12.70;88.30;;;;;;5040189;28;19929;-74
2023/03/31 03:42:20;;;;;;;;;;;12.60;88.40;;;;;;5041772;28;19929;-79
2023/03/31 03:44:47;;;;;;;;;;;12.60;88.40;;;;;;5038038;28;19928;-77
2023/03/31 03:47:14;;;;;;;;;;;12.60;88.50;;;;;;5042553;28;19972;-78
2023/03/31 03:49:40;;;;;;;;;;;12.60;88.60;;;;;;5036860;28;20357;-76
2023/03/31 03:52:08;;;;;;;;;;;12.60;88.70;;;;;;5033809;28;20421;-81
2023/03/31 03:54:35;;;;;;;;;;;12.60;88.90;;;;;;5031905;28;19939;-78
2023/03/31 03:57:02;;;;;;;;;;;12.60;88.90;;;;;;5035187;28;20007;-80
2023/03/31 03:59:28;;;;;;;;;;;12.60;89.10;;;;;;5034300;28;19978;-77
2023/03/31 04:01:55;;;;;;;;;;;12.60;89.10;;;;;;5034805;28;19929;-78
2023/03/31 04:04:21;;;;;;;;;;;12.60;89.20;;;;;;5032760;28;19933;-74
2023/03/31 04:06:48;;;;;;;;;;;12.50;89.30;;;;;;5034306;28;19936;-78
2023/03/31 04:09:16;;;;;;;;;;;12.50;89.30;;;;;;5029330;28;19929;-77
2023/03/31 04:11:42;;;;;;;;;;;12.50;89.40;;;;;;5031678;28;19937;-76
2023/03/31 04:14:09;;;;;;;;;;;12.50;89.40;;;;;;5034096;28;19932;-74
2023/03/31 04:16:37;;;;;;;;;;;12.40;89.40;;;;;;5032311;28;20856;-75
2023/03/31 04:19:03;;;;;;;;;;;12.40;89.50;;;;;;5043373;28;20640;-77
2023/03/31 04:21:33;;;;;;;;;;;12.40;89.60;;;;;;5047893;28;19971;-74
2023/03/31 04:24:03;;;;;;;;;;;12.40;89.70;;;;;;5050981;28;19929;-78
2023/03/31 04:26:41;;;;;;;;;;;12.40;89.70;;;;;;5047744;28;19935;-77
2023/03/31 04:29:08;;;;;;;;;;;12.40;89.80;;;;;;5047080;28;19929;-77
2023/03/31 04:31:37;;;;;;;;;;;12.40;90.20;;;;;;5046494;28;20048;-77
2023/03/31 04:34:05;;;;;;;;;;;12.40;89.90;;;;;;5046446;28;19986;-77
2023/03/31 04:36:32;;;;;;;;;;;12.40;90.00;;;;;;5043543;28;19928;-78
2023/03/31 04:38:59;;;;;;;;;;;12.40;90.00;;;;;;5050187;28;19932;-79
2023/03/31 04:41:27;;;;;;;;;;;12.30;90.00;;;;;;5042354;28;20409;-77
2023/03/31 04:43:55;;;;;;;;;;;12.30;90.00;;;;;;5041446;28;20570;-77
2023/03/31 04:46:22;;;;;;;;;;;12.30;90.10;;;;;;5048447;28;19936;-76
2023/03/31 04:48:48;;;;;;;;;;;12.30;90.10;;;;;;5043288;28;19938;-77
2023/03/31 04:51:15;;;;;;;;;;;12.30;90.10;;;;;;5037955;28;19933;-76
2023/03/31 04:53:42;;;;;;;;;;;12.30;90.20;;;;;;5034004;28;20020;-77
2023/03/31 04:56:08;;;;;;;;;;;12.20;90.10;;;;;;5041623;28;20310;-76
2023/03/31 04:58:35;;;;;;;;;;;12.20;90.50;;;;;;5042496;28;19937;-78
2023/03/31 05:01:05;;;;;;;;;;;12.20;90.20;;;;;;5036178;28;19943;-76
2023/03/31 05:03:31;;;;;;;;;;;12.20;90.20;;;;;;5036442;28;19933;-75
2023/03/31 05:05:58;;;;;;;;;;;12.20;90.30;;;;;;5040989;28;19925;-76
2023/03/31 05:08:25;;;;;;;;;;;12.20;90.30;;;;;;5048638;28;20353;-76
2023/03/31 05:10:52;;;;;;;;;;;12.20;90.30;;;;;;5042718;28;19933;-74
2023/03/31 05:13:19;;;;;;;;;;;12.10;90.30;;;;;;5044569;28;20386;-76
2023/03/31 05:15:49;;;;;;;;;;;12.20;90.40;;;;;;5037809;28;19968;-79
2023/03/31 05:18:17;;;;;;;;;;;12.20;90.40;;;;;;5035276;28;20377;-75
2023/03/31 05:20:44;;;;;;;;;;;12.10;90.50;;;;;;5037663;28;19967;-79
2023/03/31 05:23:10;;;;;;;;;;;12.10;90.50;;;;;;5041381;28;19932;-73
2023/03/31 05:25:37;;;;;;;;;;;12.10;90.60;;;;;;5044846;28;19932;-72
2023/03/31 05:28:03;;;;;;;;;;;12.10;90.60;;;;;;5037021;28;20554;-75
2023/03/31 05:30:30;;;;;;;;;;;12.10;90.70;;;;;;5032398;28;19939;-76
2023/03/31 05:32:56;;;;;;;;;;;12.00;90.70;;;;;;5033365;28;19932;-78
2023/03/31 05:35:24;;;;;;;;;;;12.10;90.70;;;;;;5041947;28;19931;-72
2023/03/31 05:37:51;;;;;;;;;;;12.10;90.80;;;;;;5041746;28;19925;-73
2023/03/31 05:40:18;;;;;;;;;;;12.10;90.80;;;;;;5044358;28;19928;-74
2023/03/31 05:42:44;;;;;;;;;;;12.10;90.80;;;;;;5050958;28;19924;-77
2023/03/31 05:45:11;;;;;;;;;;;12.00;90.80;;;;;;5046999;28;19924;-74
2023/03/31 05:47:37;;;;;;;;;;;12.00;90.90;;;;;;5042495;28;19931;-74
2023/03/31 05:50:07;;;;;;;;;;;12.00;90.90;;;;;;5040307;28;20092;-70
2023/03/31 05:52:35;;;;;;;;;;;12.00;91.10;;;;;;5040208;28;19931;-73
2023/03/31 05:55:03;;;;;;;;;;;11.90;92.40;;;;;;5049873;28;20043;-76
2023/03/31 05:57:30;;;;;;;;;;;11.80;92.60;;;;;;5043451;28;19925;-73
2023/03/31 05:59:56;;;;;;;;;;;11.80;92.60;;;;;;5042843;28;20338;-72
2023/03/31 06:02:23;;;;;;;;;;;11.80;92.50;;;;;;5044051;28;19925;-72
2023/03/31 06:04:50;;;;;;;;;;;11.80;92.60;;;;;;5048451;28;20365;-74
2023/03/31 06:07:18;;;;;;;;;;;11.80;92.50;;;;;;5044826;28;19947;-71
2023/03/31 06:09:46;;;;;;;;;;;11.70;92.40;;;;;;5034697;28;19929;-75
2023/03/31 06:12:13;;;;;;;;;;;11.70;92.40;;;;;;5044057;28;20298;-75
2023/03/31 06:14:39;;;;;;;;;;;11.70;92.40;;;;;;5042586;28;19928;-73
2023/03/31 06:17:06;;;;;;;;;;;11.70;92.60;;;;;;5037811;28;19935;-72
2023/03/31 06:19:32;;;;;;;;;;;11.70;92.40;;;;;;5038259;28;19940;-75
2023/03/31 06:21:59;;;;;;;;;;;11.70;92.40;;;;;;5046908;28;19935;-74
2023/03/31 06:24:26;;;;;;;;;;;11.70;92.40;;;;;;5046511;28;19929;-74
2023/03/31 06:26:53;;;;;;;;;;;11.70;92.40;;;;;;5042560;28;19951;-71
2023/03/31 06:29:20;;;;;;;;;;;11.70;92.40;;;;;;5039848;28;19936;-73
2023/03/31 06:31:47;;;;;;;;;;;11.70;92.40;;;;;;5037497;28;20538;-75
2023/03/31 06:34:13;;;;;;;;;;;11.70;92.40;;;;;;5037203;28;19933;-74
2023/03/31 06:36:40;;;;;;;;;;;11.70;92.60;;;;;;5038760;28;19936;-73
2023/03/31 06:39:07;;;;;;;;;;;11.70;92.50;;;;;;5040443;28;19932;-73
2023/03/31 06:41:33;;;;;;;;;;;11.70;92.50;;;;;;5041743;28;19937;-74
2023/03/31 06:44:01;;;;;;;;;;;11.70;92.60;;;;;;5042468;28;19936;-74
2023/03/31 06:46:28;;;;;;;;;;;11.70;92.70;;;;;;5043731;28;19932;-75
2023/03/31 06:48:55;;;;;;;;;;;11.60;92.70;;;;;;5036780;28;19929;-76
2023/03/31 06:51:21;;;;;;;;;;;11.60;93.00;;;;;;5039693;28;19929;-74
2023/03/31 06:53:48;;;;;;;;;;;11.60;92.90;;;;;;5036069;28;20242;-74
2023/03/31 06:56:15;;;;;;;;;;;11.60;93.10;;;;;;5039051;28;20006;-75
2023/03/31 06:58:41;;;;;;;;;;;11.60;93.10;;;;;;5033135;28;20346;-74
2023/03/31 07:01:10;;;;;;;;;;;11.50;93.20;;;;;;5038480;28;20043;-75
2023/03/31 07:03:36;;;;;;;;;;;11.50;93.30;;;;;;5038985;28;20064;-73
2023/03/31 07:06:03;;;;;;;;;;;11.50;93.30;;;;;;5043477;28;20520;-76
2023/03/31 07:08:30;;;;;;;;;;;11.50;93.40;;;;;;5036347;28;20881;-74
2023/03/31 07:10:58;;;;;;;;;;;11.60;93.50;;;;;;5040322;28;19936;-75
2023/03/31 07:13:25;;;;;;;;;;;11.60;93.60;;;;;;5033676;28;19929;-74
2023/03/31 07:15:51;;;;;;;;;;;11.50;93.60;;;;;;5042361;28;19928;-76
2023/03/31 07:18:20;;;;;;;;;;;11.50;93.70;;;;;;5033153;28;19944;-77
2023/03/31 07:20:48;;;;;;;;;;;11.50;93.70;;;;;;5042179;28;19928;-75
2023/03/31 07:23:14;;;;;;;;;;;11.50;93.70;;;;;;5035384;28;20103;-75
2023/03/31 07:25:41;;;;;;;;;;;11.50;93.70;;;;;;5039819;28;20391;-72
2023/03/31 07:28:07;;;;;;;;;;;11.50;93.70;;;;;;5040114;28;20415;-73
2023/03/31 07:30:34;;;;;;;;;;;11.60;93.70;;;;;;5037517;28;19972;-76
2023/03/31 07:33:01;;;;;;;;;;;11.60;93.70;;;;;;5038014;28;19968;-74
2023/03/31 07:35:29;;;;;;;;;;;11.60;93.70;;;;;;5038061;28;19928;-76
2023/03/31 07:37:55;;;;;;;;;;;11.60;93.70;;;;;;5028251;28;19951;-74
2023/03/31 07:40:24;;;;;;;;;;;11.60;93.60;;;;;;5037669;28;19936;-73
2023/03/31 07:42:51;;;;;;;;;;;11.60;93.70;;;;;;5039231;28;20359;-73
2023/03/31 07:45:18;;;;;;;;;;;11.60;93.70;;;;;;5034249;28;20776;-73
2023/03/31 07:47:45;;;;;;;;;;;11.60;93.70;;;;;;5041662;28;20792;-73
2023/03/31 07:50:11;;;;;;;;;;;11.70;93.80;;;;;;5044041;28;20047;-77
2023/03/31 07:52:39;;;;;;;;;;;11.70;93.90;;;;;;5041612;28;19928;-74
2023/03/31 07:55:07;;;;;;;;;;;11.70;93.90;;;;;;5030336;28;20398;-73
2023/03/31 07:57:34;;;;;;;;;;;11.70;93.80;;;;;;5039840;28;19935;-75
2023/03/31 08:00:01;;;;;;;;;;;11.70;94.00;;;;;;5042994;28;19932;-74
2023/03/31 08:02:27;;;;;;;;;;;11.70;93.60;;;;;;5040808;28;19925;-75
2023/03/31 08:04:54;;;;;;;;;;;11.80;93.50;;;;;;5043230;28;19924;-75
2023/03/31 08:07:20;;;;;;;;;;;11.80;93.40;;;;;;5044157;28;19929;-74
2023/03/31 08:09:48;;;;;;;;;;;11.80;93.40;;;;;;5036277;28;19928;-74
2023/03/31 08:12:15;;;;;;;;;;;11.80;93.30;;;;;;5038524;28;19936;-74
2023/03/31 08:14:42;;;;;;;;;;;11.80;93.20;;;;;;5045563;28;20038;-73
2023/03/31 08:17:08;;;;;;;;;;;11.80;93.20;;;;;;5040528;28;19939;-73
2023/03/31 08:19:35;;;;;;;;;;;11.90;93.10;;;;;;5046096;28;19929;-74
2023/03/31 08:22:02;;;;;;;;;;;11.90;93.00;;;;;;5049185;28;19928;-71
2023/03/31 08:24:28;;;;;;;;;;;11.90;92.90;;;;;;5044611;28;20392;-74
2023/03/31 08:26:56;;;;;;;;;;;11.90;92.80;;;;;;5044296;28;19929;-74
2023/03/31 08:29:23;;;;;;;;;;;11.90;92.70;;;;;;5049177;28;19998;-76
2023/03/31 08:31:50;;;;;;;;;;;12.00;92.60;;;;;;5044038;28;19932;-74
2023/03/31 08:34:16;;;;;;;;;;;12.00;92.50;;;;;;5041459;28;19928;-72
2023/03/31 08:36:43;;;;;;;;;;;12.00;92.30;;;;;;5041057;28;19986;-73
2023/03/31 08:39:09;;;;;;;;;;;12.10;92.20;;;;;;5041349;28;20318;-73
2023/03/31 08:41:42;;;;;;;;;;;12.10;92.10;;;;;;5044392;28;19934;-74
2023/03/31 08:44:13;;;;;;;;;;;12.20;92.00;;;;;;5040031;28;19956;-74
2023/03/31 08:46:41;;;;;;;;;;;12.20;91.80;;;;;;5047912;28;19939;-72
2023/03/31 08:49:07;;;;;;;;;;;12.30;91.60;;;;;;5038425;28;20391;-72
2023/03/31 08:51:37;;;;;;;;;;;12.30;91.50;;;;;;5045642;28;20072;-76
2023/03/31 08:54:06;;;;;;;;;;;12.30;91.30;;;;;;5039625;28;19929;-74
2023/03/31 08:56:36;;;;;;;;;;;12.40;91.30;;;;;;5036344;28;20454;-74
2023/03/31 08:59:03;;;;;;;;;;;12.40;91.30;;;;;;5035716;28;20339;-75
2023/03/31 09:01:36;;;;;;;;;;;12.50;91.20;;;;;;5042515;28;19932;-75
2023/03/31 09:04:11;;;;;;;;;;;12.50;91.10;;;;;;5043899;28;19940;-76
2023/03/31 09:06:39;;;;;;;;;;;12.60;91.10;;;;;;5047217;28;19929;-72
2023/03/31 09:09:09;;;;;;;;;;;12.60;91.00;;;;;;5042904;28;19929;-73
2023/03/31 09:11:38;;;;;;;;;;;12.70;91.00;;;;;;5046926;28;20689;-73
2023/03/31 09:14:23;;;;;;;;;;;12.80;90.80;;;;;;5037455;28;19939;-73
2023/03/31 09:16:54;;;;;;;;;;;12.80;90.60;;;;;;5033516;28;19932;-75
2023/03/31 09:19:30;;;;;;;;;;;12.90;90.40;;;;;;5037000;28;19968;-73
2023/03/31 09:22:00;;;;;;;;;;;13.00;90.20;;;;;;5037796;28;19979;-74
2023/03/31 09:24:29;;;;;;;;;;;13.00;90.10;;;;;;5042669;28;19964;-73
2023/03/31 09:26:58;;;;;;;;;;;13.10;89.70;;;;;;5038332;28;20359;-73
2023/03/31 09:29:30;;;;;;;;;;;13.10;89.10;;;;;;5040847;28;19936;-75
2023/03/31 09:32:00;;;;;;;;;;;13.20;88.90;;;;;;5040640;28;20046;-74
2023/03/31 09:34:30;;;;;;;;;;;13.20;88.00;;;;;;5042620;28;20019;-76
2023/03/31 09:36:56;;;;;;;;;;;13.30;88.50;;;;;;5035640;28;19929;-74
2023/03/31 09:39:23;;;;;;;;;;;13.30;88.30;;;;;;5035826;28;19928;-75
2023/03/31 09:41:50;;;;;;;;;;;13.40;87.90;;;;;;5044245;28;19924;-73
2023/03/31 09:44:22;;;;;;;;;;;13.50;87.20;;;;;;5042771;28;19924;-75
2023/03/31 09:46:49;;;;;;;;;;;13.50;86.60;;;;;;5042176;28;19931;-72
2023/03/31 09:49:18;;;;;;;;;;;13.60;86.50;;;;;;5042930;28;19936;-73
2023/03/31 09:51:46;;;;;;;;;;;13.60;86.30;;;;;;5035974;28;20780;-71
2023/03/31 09:54:15;;;;;;;;;;;13.60;86.20;;;;;;5041471;28;19947;-72
2023/03/31 09:56:47;;;;;;;;;;;13.70;86.00;;;;;;5043642;28;19940;-73
2023/03/31 09:59:16;;;;;;;;;;;13.70;85.60;;;;;;5037157;28;19935;-73
2023/03/31 10:01:44;;;;;;;;;;;13.70;85.50;;;;;;5037079;28;20375;-72
2023/03/31 10:04:16;;;;;;;;;;;13.80;85.50;;;;;;5041042;28;19933;-74
2023/03/31 10:06:44;;;;;;;;;;;13.80;85.20;;;;;;5037983;28;19936;-72
2023/03/31 10:09:11;;;;;;;;;;;13.90;85.30;;;;;;5039488;28;19952;-73
2023/03/31 10:11:39;;;;;;;;;;;13.90;84.60;;;;;;5039647;28;20405;-72
2023/03/31 10:14:12;;;;;;;;;;;13.90;84.10;;;;;;5038540;28;21309;-72
2023/03/31 10:16:44;;;;;;;;;;;14.00;84.30;;;;;;5034089;28;19936;-73
2023/03/31 10:19:12;;;;;;;;;;;14.00;84.00;;;;;;5037501;28;20361;-73
2023/03/31 10:21:39;;;;;;;;;;;14.00;83.60;;;;;;5047639;28;20369;-72
2023/03/31 10:24:10;;;;;;;;;;;14.00;83.30;;;;;;5039417;28;19952;-71
2023/03/31 10:26:37;;;;;;;;;;;14.00;83.00;;;;;;5045131;28;19974;-72
2023/03/31 10:29:09;;;;;;;;;;;14.10;82.70;;;;;;5037990;28;19936;-73
2023/03/31 10:31:36;;;;;;;;;;;14.10;82.10;;;;;;5042732;28;20019;-73
2023/03/31 10:34:06;;;;;;;;;;;14.20;82.70;;;;;;5036550;28;20316;-75
2023/03/31 10:36:33;;;;;;;;;;;14.10;82.00;;;;;;5039073;28;19928;-75
2023/03/31 10:39:04;;;;;;;;;;;14.10;81.90;;;;;;5040569;28;20551;-73
2023/03/31 10:41:32;;;;;;;;;;;14.10;81.60;;;;;;5034370;28;19933;-75
2023/03/31 10:44:00;;;;;;;;;;;14.10;81.70;;;;;;5036806;28;19928;-73
2023/03/31 10:46:39;;;;;;;;;;;14.10;80.80;;;;;;5040358;28;20016;-74
2023/03/31 10:49:14;;;;;;;;;;;14.10;79.90;;;;;;5037768;28;20047;-72
2023/03/31 10:51:48;;;;;;;;;;;14.10;79.70;;;;;;5043100;28;20043;-74
2023/03/31 10:54:14;;;;;;;;;;;14.10;79.20;;;;;;5040357;28;20576;-73
2023/03/31 10:56:44;;;;;;;;;;;14.10;79.10;;;;;;5042128;28;19933;-72
2023/03/31 10:59:20;;;;;;;;;;;14.20;78.90;;;;;;5029255;28;20028;-76
2023/03/31 11:01:54;;;;;;;;;;;14.10;79.00;;;;;;5034171;28;19932;-73
2023/03/31 11:04:37;;;;;;;;;;;14.10;79.40;;;;;;5042248;28;19960;-73
2023/03/31 11:07:09;;;;;;;;;;;14.00;80.70;;;;;;5039328;28;19933;-74
2023/03/31 11:09:42;;;;;;;;;;;14.00;82.70;;;;;;5041909;28;19935;-74
2023/03/31 11:12:14;;;;;;;;;;;13.90;83.90;;;;;;5040543;28;19939;-73
2023/03/31 11:14:48;;;;;;;;;;;13.80;84.80;;;;;;5036688;28;20399;-72
2023/03/31 11:17:21;;;;;;;;;;;13.80;85.50;;;;;;5027033;28;20470;-74
2023/03/31 11:19:52;;;;;;;;;;;13.80;85.60;;;;;;5031477;28;19936;-75
2023/03/31 11:22:22;;;;;;;;;;;13.80;84.90;;;;;;5037912;28;19928;-73
2023/03/31 11:25:02;;;;;;;;;;;13.80;84.60;;;;;;5030187;28;19934;-74
2023/03/31 11:27:36;;;;;;;;;;;13.80;83.60;;;;;;5023250;28;20581;-75
2023/03/31 11:30:06;;;;;;;;;;;13.90;81.50;;;;;;5032696;28;19936;-73
2023/03/31 11:32:43;;;;;;;;;;;13.90;81.10;;;;;;5039300;28;19939;-76
2023/03/31 11:35:17;;;;;;;;;;;13.90;81.10;;;;;;5038155;28;20307;-77
2023/03/31 11:37:53;;;;;;;;;;;13.80;80.80;;;;;;5042537;28;21906;-74
2023/03/31 11:40:36;;;;;;;;;;;13.80;80.70;;;;;;5036708;28;19936;-76
2023/03/31 11:43:06;;;;;;;;;;;13.80;80.40;;;;;;5031918;28;19935;-74
2023/03/31 11:45:35;;;;;;;;;;;13.80;79.90;;;;;;5034523;28;19940;-74
2023/03/31 11:48:05;;;;;;;;;;;13.80;78.90;;;;;;5038486;28;19939;-76
2023/03/31 11:50:33;;;;;;;;;;;13.80;78.60;;;;;;5041258;28;19939;-76
2023/03/31 11:53:01;;;;;;;;;;;13.70;78.40;;;;;;5048065;28;19935;-76
2023/03/31 11:55:30;;;;;;;;;;;13.70;78.20;;;;;;5043134;28;19935;-76
2023/03/31 11:58:01;;;;;;;;;;;13.70;77.60;;;;;;5040650;28;19960;-74
2023/03/31 12:00:31;;;;;;;;;;;13.70;77.80;;;;;;5041025;28;19936;-74
2023/03/31 12:02:59;;;;;;;;;;;13.70;77.80;;;;;;5044310;28;19932;-78
2023/03/31 12:05:27;;;;;;;;;;;13.70;77.80;;;;;;5047428;28;20486;-74
2023/03/31 12:07:57;;;;;;;;;;;13.80;77.40;;;;;;5045747;28;19929;-73
2023/03/31 12:10:31;;;;;;;;;;;13.80;77.40;;;;;;5041742;28;19936;-75
2023/03/31 12:12:59;;;;;;;;;;;13.90;77.50;;;;;;5038986;28;19935;-74
2023/03/31 12:15:29;;;;;;;;;;;13.90;77.00;;;;;;5043312;28;19939;-74
2023/03/31 12:18:00;;;;;;;;;;;14.00;77.20;;;;;;5047508;28;19928;-74
2023/03/31 12:20:30;;;;;;;;;;;14.10;76.90;;;;;;5049739;28;20031;-76
2023/03/31 12:22:58;;;;;;;;;;;14.20;76.50;;;;;;5033241;28;19928;-75
2023/03/31 12:25:26;;;;;;;;;;;14.20;76.20;;;;;;5033020;28;19929;-75
2023/03/31 12:27:55;;;;;;;;;;;14.20;75.90;;;;;;5044259;28;19936;-75
2023/03/31 12:30:26;;;;;;;;;;;14.40;76.00;;;;;;5035902;28;19941;-73
2023/03/31 12:32:54;;;;;;;;;;;14.40;75.60;;;;;;5038257;28;19924;-71
2023/03/31 12:35:24;;;;;;;;;;;14.40;75.20;;;;;;5033385;28;20643;-74
2023/03/31 12:37:58;;;;;;;;;;;14.40;75.30;;;;;;5042018;28;19928;-71
2023/03/31 12:40:32;;;;;;;;;;;14.40;74.70;;;;;;5039926;28;20259;-71
2023/03/31 12:43:09;;;;;;;;;;;14.40;74.80;;;;;;5046390;28;19933;-78
2023/03/31 12:45:38;;;;;;;;;;;14.40;74.80;;;;;;5043805;28;19929;-77
2023/03/31 12:48:15;;;;;;;;;;;14.40;74.90;;;;;;5053372;28;20298;-73
2023/03/31 12:50:49;;;;;;;;;;;14.40;75.00;;;;;;5051743;28;21703;-74
2023/03/31 12:53:21;;;;;;;;;;;14.30;75.20;;;;;;5054412;28;19935;-73
2023/03/31 12:55:48;;;;;;;;;;;14.30;75.20;;;;;;5047991;28;20779;-73
2023/03/31 12:58:34;;;;;;;;;;;14.30;75.20;;;;;;5047218;28;20129;-74
2023/03/31 13:01:05;;;;;;;;;;;14.30;75.40;;;;;;5047391;28;19934;-74
2023/03/31 13:03:46;;;;;;;;;;;14.20;75.50;;;;;;5045194;28;20016;-73
2023/03/31 13:06:34;;;;;;;;;;;14.30;75.50;;;;;;5045390;28;20517;-74
2023/03/31 13:09:03;;;;;;;;;;;14.30;75.50;;;;;;5047638;28;19978;-78
2023/03/31 13:11:37;;;;;;;;;;;14.30;75.60;;;;;;5045933;28;20031;-77
2023/03/31 13:14:05;;;;;;;;;;;14.40;75.60;;;;;;5049901;28;19928;-77
2023/03/31 13:16:33;;;;;;;;;;;14.50;75.40;;;;;;5050992;28;19929;-76
2023/03/31 13:19:00;;;;;;;;;;;14.60;75.20;;;;;;5054621;28;19928;-77
2023/03/31 13:21:27;;;;;;;;;;;14.70;75.10;;;;;;5048440;28;19940;-72
2023/03/31 13:23:59;;;;;;;;;;;14.70;75.00;;;;;;5049718;28;20378;-74
2023/03/31 13:26:45;;;;;;;;;;;14.80;74.60;;;;;;5043390;28;20571;-73
2023/03/31 13:29:22;;;;;;;;;;;14.80;74.10;;;;;;5048426;28;19933;-72
2023/03/31 13:32:17;;;;;;;;;;;14.90;74.20;;;;;;5052068;28;20023;-74
2023/03/31 13:34:46;;;;;;;;;;;14.90;74.00;;;;;;5045988;28;21523;-74
2023/03/31 13:37:19;;;;;;;;;;;15.00;73.70;;;;;;5047247;28;19928;-73
2023/03/31 13:39:56;;;;;;;;;;;15.00;73.60;;;;;;5047802;28;19928;-73
2023/03/31 13:42:43;;;;;;;;;;;15.00;73.60;;;;;;5051387;28;19940;-72
2023/03/31 13:45:19;;;;;;;;;;;15.00;73.20;;;;;;5045905;28;20600;-72
2023/03/31 13:48:01;;;;;;;;;;;15.10;73.20;;;;;;5044529;28;20019;-75
2023/03/31 13:50:37;;;;;;;;;;;15.00;73.40;;;;;;5037898;28;19931;-74
2023/03/31 13:53:09;;;;;;;;;;;15.00;73.70;;;;;;5039409;28;19928;-71
2023/03/31 13:55:48;;;;;;;;;;;15.00;73.60;;;;;;5033938;28;20491;-71
2023/03/31 13:58:20;;;;;;;;;;;15.00;73.80;;;;;;5036955;28;19937;-70
2023/03/31 14:00:52;;;;;;;;;;;15.00;73.80;;;;;;5043778;28;19940;-73
2023/03/31 14:03:22;;;;;;;;;;;15.00;74.40;;;;;;5030434;28;19929;-72
2023/03/31 14:05:53;;;;;;;;;;;14.90;74.90;;;;;;5033266;28;19948;-70
2023/03/31 14:08:29;;;;;;;;;;;14.90;75.60;;;;;;5040997;28;19943;-73
2023/03/31 14:11:15;;;;;;;;;;;14.80;76.40;;;;;;5030809;28;19933;-72
2023/03/31 14:13:41;;;;;;;;;;;14.80;75.80;;;;;;5043775;28;19933;-71
2023/03/31 14:16:08;;;;;;;;;;;14.80;75.60;;;;;;5027442;28;19928;-72
2023/03/31 14:18:36;;;;;;;;;;;14.80;75.30;;;;;;5045017;28;19976;-74
2023/03/31 14:21:16;;;;;;;;;;;14.80;74.80;;;;;;5035865;28;19935;-74
2023/03/31 14:23:49;;;;;;;;;;;14.70;74.60;;;;;;5040085;28;19928;-71
2023/03/31 14:26:20;;;;;;;;;;;14.70;74.70;;;;;;5039653;28;19928;-74
2023/03/31 14:28:57;;;;;;;;;;;14.70;74.70;;;;;;5038912;28;20023;-72
2023/03/31 14:31:26;;;;;;;;;;;14.70;74.80;;;;;;5031110;28;19936;-72